Time;durP1;ratioP1;P1;durP2;ratioP2;P2;SDS_P1;SDS_P2;PMS_P1;PMS_P2;Temp;Humidity;BMP_temperature;BMP_pressure;BME280_temperature;BME280_humidity;BME280_pressure;Samples;Min_cycle;Max_cycle;Signal;HPM_P1;HPM_P2
2022/05/03 00:01:32;;;;;;;5.83;4.40;;;14.20;82.00;;;;;;5040028;28;20704;-34
2022/05/03 00:04:18;;;;;;;5.53;3.93;;;14.20;81.20;;;;;;5029131;28;20189;-34
2022/05/03 00:07:10;;;;;;;6.53;4.90;;;14.10;81.40;;;;;;5030448;28;20733;-34
2022/05/03 00:10:02;;;;;;;4.23;3.83;;;14.10;81.40;;;;;;5045670;28;20611;-34
2022/05/03 00:12:47;;;;;;;5.25;4.00;;;14.10;81.20;;;;;;5049607;28;20231;-34
2022/05/03 00:15:20;;;;;;;5.40;4.10;;;14.00;81.30;;;;;;5029303;28;20667;-34
2022/05/03 00:17:48;;;;;;;5.93;4.10;;;13.90;81.10;;;;;;5028804;28;20229;-34
2022/05/03 00:20:17;;;;;;;5.83;4.27;;;13.90;81.00;;;;;;5027033;28;20236;-34
2022/05/03 00:22:46;;;;;;;5.03;3.60;;;13.90;81.20;;;;;;5046189;28;20224;-34
2022/05/03 00:25:17;;;;;;;4.57;3.87;;;13.90;81.10;;;;;;5048518;28;20208;-34
2022/05/03 00:27:45;;;;;;;4.20;3.67;;;13.80;81.10;;;;;;5044641;28;20200;-35
2022/05/03 00:30:15;;;;;;;4.37;3.43;;;13.80;81.10;;;;;;5048295;28;20211;-36
2022/05/03 00:32:43;;;;;;;4.30;3.70;;;13.80;81.00;;;;;;5047664;28;20273;-37
2022/05/03 00:35:16;;;;;;;4.70;3.57;;;13.70;81.10;;;;;;5033906;28;20228;-37
2022/05/03 00:37:44;;;;;;;4.73;3.40;;;13.70;80.90;;;;;;5033615;28;20290;-37
2022/05/03 00:40:14;;;;;;;5.83;3.30;;;13.70;81.00;;;;;;5048733;28;20208;-37
2022/05/03 00:43:13;;;;;;;3.65;3.35;;;13.60;81.10;;;;;;5047573;28;20289;-37
2022/05/03 00:45:53;;;;;;;3.97;3.40;;;13.60;81.00;;;;;;5047816;28;20587;-37
2022/05/03 00:48:48;;;;;;;4.60;3.67;;;13.60;80.70;;;;;;5047617;28;20206;-36
2022/05/03 00:51:28;;;;;;;3.80;3.20;;;13.60;80.70;;;;;;5044967;28;20319;-37
2022/05/03 00:54:17;;;;;;;4.88;3.30;;;13.50;80.90;;;;;;5046892;28;20294;-37
2022/05/03 00:56:56;;;;;;;5.40;3.40;;;13.40;80.70;;;;;;5046906;28;20242;-37
2022/05/03 00:59:48;;;;;;;4.20;3.27;;;13.40;80.80;;;;;;5033968;28;20282;-37
2022/05/03 01:02:22;;;;;;;4.00;3.30;;;13.30;81.10;;;;;;5031822;28;20263;-37
2022/05/03 01:05:02;;;;;;;3.93;3.20;;;13.30;80.60;;;;;;5035311;28;20201;-36
2022/05/03 01:07:42;;;;;;;3.43;2.90;;;13.30;80.60;;;;;;5044427;28;20204;-36
2022/05/03 01:10:33;;;;;;;2.90;2.60;;;13.20;80.80;;;;;;5035679;28;20573;-36
2022/05/03 01:13:04;;;;;;;3.38;2.83;;;13.20;81.10;;;;;;5048788;28;20270;-36
2022/05/03 01:15:40;;;;;;;2.97;2.67;;;13.10;80.50;;;;;;5046720;28;20208;-35
2022/05/03 01:18:20;;;;;;;3.00;2.63;;;13.10;80.50;;;;;;5038185;28;20223;-34
2022/05/03 01:21:11;;;;;;;3.43;2.83;;;13.00;80.40;;;;;;5037788;28;20196;-34
2022/05/03 01:23:42;;;;;;;3.43;2.90;;;13.00;81.40;;;;;;5033443;28;20224;-34
2022/05/03 01:26:18;;;;;;;4.13;3.08;;;13.00;80.30;;;;;;5034929;28;20263;-34
2022/05/03 01:29:22;;;;;;;4.00;3.10;;;12.90;80.20;;;;;;5048279;28;20215;-35
2022/05/03 01:31:55;;;;;;;3.67;3.10;;;12.90;80.90;;;;;;5047470;28;20327;-34
2022/05/03 01:34:25;;;;;;;4.60;3.23;;;12.80;80.30;;;;;;5047292;28;20204;-35
2022/05/03 01:37:11;;;;;;;3.70;3.23;;;12.80;80.20;;;;;;5046890;28;20211;-35
2022/05/03 01:40:03;;;;;;;4.13;3.08;;;12.80;80.60;;;;;;5031888;28;20213;-34
2022/05/03 01:42:51;;;;;;;3.47;3.17;;;12.80;80.80;;;;;;5035990;28;20273;-34
2022/05/03 01:45:36;;;;;;;3.20;2.90;;;12.70;80.30;;;;;;5048112;28;20196;-34
2022/05/03 01:48:10;;;;;;;3.10;2.80;;;12.70;80.20;;;;;;5047790;28;20219;-35
2022/05/03 01:51:20;;;;;;;4.17;3.10;;;12.70;80.40;;;;;;5047484;28;20290;-34
2022/05/03 01:53:58;;;;;;;3.30;2.77;;;12.60;80.30;;;;;;5046433;28;20266;-35
2022/05/03 01:56:38;;;;;;;3.47;2.67;;;12.60;80.50;;;;;;5028461;28;20657;-34
2022/05/03 01:59:30;;;;;;;4.60;3.33;;;12.50;80.50;;;;;;5043248;28;20700;-34
2022/05/03 02:02:24;;;;;;;3.37;3.07;;;12.50;81.40;;;;;;5036499;28;20706;-34
2022/05/03 02:05:07;;;;;;;4.23;3.03;;;12.50;81.40;;;;;;5033829;28;20786;-34
2022/05/03 02:07:54;;;;;;;3.83;3.20;;;12.40;80.70;;;;;;5035222;28;20215;-34
2022/05/03 02:10:55;;;;;;;3.47;3.07;;;12.40;80.50;;;;;;5027715;28;20208;-34
2022/05/03 02:16:37;;;;;;;4.80;3.60;;;12.40;81.20;;;;;;5030244;28;20732;-35
2022/05/03 02:19:12;;;;;;;4.00;3.20;;;12.30;80.80;;;;;;5026651;28;20217;-34
2022/05/03 02:22:13;;;;;;;5.30;3.10;;;12.30;80.80;;;;;;5027642;28;20201;-35
2022/05/03 02:25:02;;;;;;;6.07;3.73;;;12.20;81.00;;;;;;5027597;28;20201;-35
2022/05/03 02:27:34;;;;;;;4.27;3.47;;;12.20;81.40;;;;;;5029530;28;20204;-34
2022/05/03 02:30:04;;;;;;;4.57;3.47;;;12.20;80.90;;;;;;5041842;28;20264;-34
2022/05/03 02:32:44;;;;;;;4.50;3.50;;;12.20;81.00;;;;;;5031076;28;20204;-34
2022/05/03 02:35:21;;;;;;;3.53;3.20;;;12.10;80.80;;;;;;5047249;28;20216;-35
2022/05/03 02:37:50;;;;;;;4.07;3.67;;;12.20;81.00;;;;;;5050994;28;20208;-36
2022/05/03 02:40:21;;;;;;;4.43;3.57;;;12.10;81.30;;;;;;5049664;28;20200;-36
2022/05/03 02:42:51;;;;;;;4.37;3.63;;;12.10;81.30;;;;;;5050930;28;20585;-36
2022/05/03 02:45:18;;;;;;;6.60;3.80;;;12.10;81.20;;;;;;5051359;28;20212;-34
2022/05/03 02:48:14;;;;;;;4.33;3.80;;;12.10;81.30;;;;;;5034189;28;20201;-35
2022/05/03 02:51:16;;;;;;;5.40;3.93;;;12.00;81.70;;;;;;5031741;28;20236;-36
2022/05/03 02:53:50;;;;;;;5.13;3.87;;;12.00;81.20;;;;;;5040060;28;20220;-36
2022/05/03 02:56:46;;;;;;;4.10;3.47;;;12.00;81.70;;;;;;5031032;28;20330;-36
2022/05/03 03:02:35;;;;;;;5.00;3.93;;;12.00;81.60;;;;;;5033573;28;20232;-36
2022/05/03 03:05:08;;;;;;;4.37;3.83;;;11.90;83.10;;;;;;5029949;28;20240;-36
2022/05/03 03:07:38;;;;;;;4.27;3.70;;;11.90;81.60;;;;;;5038313;28;20224;-37
2022/05/03 03:10:12;;;;;;;4.53;4.00;;;11.90;81.70;;;;;;5033244;28;20591;-36
2022/05/03 03:13:00;;;;;;;6.87;4.30;;;11.90;82.20;;;;;;5029549;28;20211;-36
2022/05/03 03:15:29;;;;;;;5.87;4.13;;;11.80;82.20;;;;;;5030507;28;20200;-36
2022/05/03 03:17:58;;;;;;;4.57;3.90;;;11.80;81.80;;;;;;5030730;28;20213;-36
2022/05/03 03:20:28;;;;;;;5.27;4.07;;;11.80;82.00;;;;;;5036894;28;20295;-35
2022/05/03 03:22:56;;;;;;;4.97;4.10;;;11.70;82.30;;;;;;5050673;28;20220;-36
2022/05/03 03:25:24;;;;;;;5.80;5.13;;;11.70;81.60;;;;;;5034962;28;20296;-35
2022/05/03 03:27:53;;;;;;;4.57;4.00;;;11.70;81.80;;;;;;5030664;28;20702;-35
2022/05/03 03:30:21;;;;;;;7.73;4.20;;;11.70;82.00;;;;;;5038131;28;20250;-35
2022/05/03 03:32:53;;;;;;;7.43;4.27;;;11.70;81.90;;;;;;5050198;28;20204;-35
2022/05/03 03:35:24;;;;;;;4.97;4.53;;;11.60;81.90;;;;;;5046708;28;20285;-36
2022/05/03 03:37:52;;;;;;;4.83;4.33;;;11.60;82.30;;;;;;5042106;28;20229;-35
2022/05/03 03:40:20;;;;;;;4.97;4.43;;;11.60;82.10;;;;;;5039069;28;21017;-35
2022/05/03 03:42:49;;;;;;;4.77;4.27;;;11.60;82.10;;;;;;5030412;28;20226;-36
2022/05/03 03:45:17;;;;;;;6.23;4.50;;;11.50;82.20;;;;;;5030004;28;20691;-35
2022/05/03 03:47:48;;;;;;;5.83;4.60;;;11.50;82.40;;;;;;5029993;28;20262;-35
2022/05/03 03:50:20;;;;;;;5.60;4.20;;;11.50;82.50;;;;;;5015507;28;20208;-36
2022/05/03 03:52:53;;;;;;;6.80;4.87;;;11.50;82.90;;;;;;5029943;28;20718;-35
2022/05/03 03:55:21;;;;;;;6.50;4.67;;;11.50;83.00;;;;;;5030472;28;20232;-35
2022/05/03 03:57:50;;;;;;;5.83;4.73;;;11.40;82.90;;;;;;5030394;28;20289;-35
2022/05/03 04:00:18;;;;;;;7.20;5.00;;;11.40;83.30;;;;;;5030184;28;20233;-35
2022/05/03 04:02:46;;;;;;;6.27;5.13;;;11.40;83.70;;;;;;5043506;28;20252;-34
2022/05/03 04:05:22;;;;;;;5.83;4.53;;;11.30;82.80;;;;;;5027511;28;20536;-33
2022/05/03 04:07:53;;;;;;;5.73;5.10;;;11.30;83.00;;;;;;5029933;28;20283;-34
2022/05/03 04:10:21;;;;;;;6.43;5.10;;;11.30;82.90;;;;;;5029550;28;20694;-34
2022/05/03 04:12:51;;;;;;;5.50;4.83;;;11.20;83.10;;;;;;5045717;28;20574;-35
2022/05/03 04:15:18;;;;;;;8.83;5.40;;;11.20;83.20;;;;;;5039046;28;20204;-35
2022/05/03 04:17:45;;;;;;;6.00;5.40;;;11.20;83.00;;;;;;5029752;28;20209;-35
2022/05/03 04:20:15;;;;;;;6.20;5.47;;;11.20;83.00;;;;;;5027211;28;20201;-35
2022/05/03 04:22:43;;;;;;;6.83;5.20;;;11.20;83.40;;;;;;5029330;28;20959;-35
2022/05/03 04:25:11;;;;;;;7.77;6.33;;;11.20;83.10;;;;;;5027977;28;20220;-35
2022/05/03 04:27:39;;;;;;;6.20;5.60;;;11.20;82.90;;;;;;5029800;28;20553;-35
2022/05/03 04:30:06;;;;;;;7.53;5.87;;;11.20;83.30;;;;;;5039431;28;20224;-35
2022/05/03 04:32:34;;;;;;;7.23;5.53;;;11.20;83.40;;;;;;5040053;28;20299;-35
2022/05/03 04:35:02;;;;;;;6.00;5.10;;;11.20;83.40;;;;;;5028492;28;20668;-35
2022/05/03 04:37:32;;;;;;;8.17;5.27;;;11.20;83.50;;;;;;5029376;28;20707;-36
2022/05/03 04:39:59;;;;;;;6.00;5.40;;;11.20;83.60;;;;;;5027496;28;20304;-35
2022/05/03 04:42:26;;;;;;;8.50;6.00;;;11.20;83.70;;;;;;5028953;28;20224;-35
2022/05/03 04:44:56;;;;;;;6.67;5.57;;;11.20;84.00;;;;;;5033813;28;20200;-35
2022/05/03 04:47:23;;;;;;;6.60;5.90;;;11.20;83.90;;;;;;5027843;28;20209;-34
2022/05/03 04:49:50;;;;;;;6.80;6.10;;;11.20;83.70;;;;;;5034281;28;20200;-34
2022/05/03 04:52:18;;;;;;;8.87;6.07;;;11.20;83.90;;;;;;5035594;28;20205;-34
2022/05/03 04:54:46;;;;;;;6.47;5.77;;;11.20;83.70;;;;;;5037081;28;20192;-34
2022/05/03 04:57:15;;;;;;;7.60;5.73;;;11.10;83.90;;;;;;5039503;28;20741;-34
2022/05/03 04:59:42;;;;;;;6.57;5.90;;;11.10;83.50;;;;;;5041996;28;20307;-34
2022/05/03 05:02:12;;;;;;;7.07;5.93;;;11.10;83.50;;;;;;5043287;28;20208;-34
2022/05/03 05:04:42;;;;;;;9.27;6.27;;;11.10;83.80;;;;;;5047031;28;20220;-34
2022/05/03 05:07:10;;;;;;;8.40;6.10;;;11.10;84.30;;;;;;5039089;28;20197;-34
2022/05/03 05:09:37;;;;;;;7.33;6.30;;;11.10;83.80;;;;;;5046775;28;20269;-34
2022/05/03 05:12:09;;;;;;;7.83;6.60;;;11.10;83.90;;;;;;5046474;28;20237;-34
2022/05/03 05:14:37;;;;;;;7.80;6.40;;;11.10;84.30;;;;;;5044734;28;20225;-34
2022/05/03 05:17:04;;;;;;;9.47;6.40;;;11.10;84.60;;;;;;5048308;28;20204;-34
2022/05/03 05:19:36;;;;;;;6.97;6.20;;;11.20;84.60;;;;;;5023280;28;20205;-34
2022/05/03 05:22:03;;;;;;;9.53;6.47;;;11.20;84.40;;;;;;5029937;28;20587;-34
2022/05/03 05:24:30;;;;;;;6.77;5.93;;;11.20;84.30;;;;;;5025389;28;20232;-33
2022/05/03 05:26:58;;;;;;;7.57;6.50;;;11.20;84.50;;;;;;5040053;28;20235;-34
2022/05/03 05:29:25;;;;;;;10.73;7.50;;;11.20;84.40;;;;;;5042862;28;20211;-34
2022/05/03 05:31:52;;;;;;;8.73;6.63;;;11.30;85.10;;;;;;5026947;28;20235;-34
2022/05/03 05:34:19;;;;;;;9.90;6.40;;;11.30;84.70;;;;;;5033895;28;20222;-34
2022/05/03 05:36:46;;;;;;;8.20;6.33;;;11.30;84.50;;;;;;5046396;28;20317;-34
2022/05/03 05:39:18;;;;;;;9.23;7.00;;;11.30;85.40;;;;;;5044098;28;20605;-34
2022/05/03 05:41:59;;;;;;;9.83;6.73;;;11.30;85.10;;;;;;5031407;28;20243;-34
2022/05/03 05:44:26;;;;;;;8.87;6.73;;;11.30;85.00;;;;;;5027851;28;20694;-34
2022/05/03 05:46:56;;;;;;;8.33;6.77;;;11.40;85.00;;;;;;5028474;28;20667;-34
2022/05/03 05:49:25;;;;;;;8.47;6.20;;;11.40;85.10;;;;;;5034625;28;20303;-34
2022/05/03 05:53:31;;;;;;;7.50;6.70;;;11.40;84.60;;;;;;5041062;28;20215;-34
2022/05/03 05:54:45;;;;;;;8.40;6.13;;;11.50;85.40;;;;;;5035506;28;20240;-34
2022/05/03 05:57:13;;;;;;;7.97;6.50;;;11.50;85.00;;;;;;5039155;28;20287;-35
2022/05/03 05:59:40;;;;;;;10.70;7.10;;;11.50;85.50;;;;;;5031424;28;20336;-36
2022/05/03 06:02:10;;;;;;;8.90;6.53;;;11.50;85.30;;;;;;5026342;28;20197;-36
2022/05/03 06:04:40;;;;;;;8.07;6.63;;;11.50;86.20;;;;;;5035913;28;20315;-36
2022/05/03 06:07:07;;;;;;;8.23;6.33;;;11.50;85.60;;;;;;5038544;28;20298;-36
2022/05/03 06:09:37;;;;;;;7.83;6.27;;;11.60;85.70;;;;;;5036524;28;20244;-36
2022/05/03 06:12:04;;;;;;;8.90;6.23;;;11.60;85.70;;;;;;5029889;28;20307;-36
2022/05/03 06:14:32;;;;;;;10.07;6.53;;;11.60;85.50;;;;;;5029664;28;20229;-36
2022/05/03 06:16:59;;;;;;;11.17;6.83;;;11.70;85.50;;;;;;5031521;28;20230;-36
2022/05/03 06:19:26;;;;;;;6.83;6.03;;;11.70;85.70;;;;;;5031669;28;20200;-37
2022/05/03 06:21:53;;;;;;;7.77;6.73;;;11.70;85.70;;;;;;5039033;28;20623;-37
2022/05/03 06:24:21;;;;;;;8.17;5.80;;;11.80;85.90;;;;;;5047503;28;20571;-37
2022/05/03 06:26:50;;;;;;;8.67;6.20;;;11.80;86.10;;;;;;5046801;28;20235;-36
2022/05/03 06:29:18;;;;;;;8.00;5.90;;;11.80;85.90;;;;;;5030491;28;20308;-36
2022/05/03 06:31:48;;;;;;;8.87;6.20;;;11.90;86.00;;;;;;5043330;28;20208;-36
2022/05/03 06:34:18;;;;;;;7.00;5.50;;;11.90;86.10;;;;;;5028423;28;20236;-36
2022/05/03 06:36:45;;;;;;;8.30;6.13;;;11.90;85.80;;;;;;5033886;28;20258;-36
2022/05/03 06:39:15;;;;;;;9.20;6.20;;;12.00;85.80;;;;;;5030929;28;20189;-35
2022/05/03 06:41:42;;;;;;;9.43;6.23;;;12.00;85.90;;;;;;5035743;28;20266;-35
2022/05/03 06:44:10;;;;;;;8.97;5.90;;;12.00;85.90;;;;;;5031318;28;20278;-35
2022/05/03 06:46:39;;;;;;;8.43;5.80;;;12.10;86.00;;;;;;5030757;28;20201;-35
2022/05/03 06:49:09;;;;;;;8.67;5.80;;;12.10;86.30;;;;;;5043595;28;20204;-35
2022/05/03 06:51:37;;;;;;;7.57;6.40;;;12.20;86.30;;;;;;5043480;28;20744;-35
2022/05/03 06:54:05;;;;;;;9.23;5.87;;;12.30;86.50;;;;;;5034255;28;20299;-35
2022/05/03 06:56:35;;;;;;;8.50;6.20;;;12.30;86.40;;;;;;5035597;28;20255;-35
2022/05/03 06:59:07;;;;;;;8.10;6.13;;;12.40;86.40;;;;;;5046772;28;20207;-35
2022/05/03 07:01:35;;;;;;;8.27;5.77;;;12.50;86.50;;;;;;5047858;28;20315;-35
2022/05/03 07:04:02;;;;;;;8.50;5.63;;;12.50;86.50;;;;;;5041160;28;20255;-36
2022/05/03 07:06:30;;;;;;;5.67;5.10;;;12.60;86.50;;;;;;5030572;28;20209;-36
2022/05/03 07:08:57;;;;;;;7.97;5.63;;;12.60;86.60;;;;;;5030416;28;20227;-36
2022/05/03 07:11:24;;;;;;;7.87;5.27;;;12.60;86.60;;;;;;5029816;28;20217;-36
2022/05/03 07:13:51;;;;;;;7.10;5.47;;;12.70;86.60;;;;;;5029128;28;20235;-35
2022/05/03 07:16:19;;;;;;;8.17;5.73;;;12.80;86.70;;;;;;5049349;28;20212;-35
2022/05/03 07:24:26;;;;;;;8.90;5.73;;;12.90;86.90;;;;;;5050110;28;20286;-36
2022/05/03 07:27:00;;;;;;;6.47;5.10;;;12.90;86.90;;;;;;5042734;28;20288;-36
2022/05/03 07:29:28;;;;;;;8.27;5.77;;;13.00;87.00;;;;;;5037037;28;20603;-36
2022/05/03 07:31:55;;;;;;;5.80;5.17;;;13.00;87.00;;;;;;5043993;28;20235;-36
2022/05/03 07:34:22;;;;;;;11.70;6.00;;;13.10;87.20;;;;;;5029202;28;20226;-35
2022/05/03 07:36:49;;;;;;;7.13;4.90;;;13.10;87.30;;;;;;5029944;28;20725;-36
2022/05/03 07:39:17;;;;;;;7.47;5.53;;;13.10;87.00;;;;;;5029897;28;20315;-35
2022/05/03 07:41:46;;;;;;;6.17;4.50;;;13.20;87.30;;;;;;5029494;28;20209;-36
2022/05/03 07:44:15;;;;;;;6.30;4.80;;;13.20;87.00;;;;;;5032384;28;20224;-36
2022/05/03 07:46:43;;;;;;;7.40;5.03;;;13.30;87.10;;;;;;5049982;28;20203;-36
2022/05/03 07:49:11;;;;;;;5.90;4.70;;;13.30;87.00;;;;;;5048861;28;20196;-36
2022/05/03 07:51:42;;;;;;;6.72;4.95;;;13.30;86.90;;;;;;5030886;28;20205;-36
2022/05/03 07:54:09;;;;;;;8.60;4.90;;;13.40;87.10;;;;;;5052818;28;20312;-35
2022/05/03 07:56:37;;;;;;;5.23;4.27;;;13.40;87.00;;;;;;5038744;28;20364;-35
2022/05/03 07:59:06;;;;;;;5.70;3.93;;;13.50;87.10;;;;;;5061106;28;20417;-36
2022/05/03 08:01:34;;;;;;;6.20;4.25;;;13.60;87.20;;;;;;5044325;28;20236;-36
2022/05/03 08:04:01;;;;;;;7.03;4.70;;;13.60;87.10;;;;;;5033219;28;20670;-36
2022/05/03 08:06:28;;;;;;;7.93;4.50;;;13.70;87.30;;;;;;5037686;28;20287;-37
2022/05/03 08:08:56;;;;;;;4.43;3.93;;;13.80;87.10;;;;;;5039543;28;20577;-36
2022/05/03 08:11:24;;;;;;;5.07;3.97;;;13.80;87.10;;;;;;5029665;28;20324;-37
2022/05/03 08:13:52;;;;;;;3.63;3.20;;;13.90;87.20;;;;;;5028852;28;20220;-36
2022/05/03 08:16:21;;;;;;;7.30;4.20;;;13.90;87.10;;;;;;5042944;28;20318;-36
2022/05/03 08:18:48;;;;;;;6.22;4.32;;;13.90;87.00;;;;;;5048141;28;20282;-36
2022/05/03 08:21:16;;;;;;;6.53;3.83;;;14.00;87.00;;;;;;5039457;28;20307;-35
2022/05/03 08:23:43;;;;;;;6.90;3.47;;;14.10;86.80;;;;;;5036352;28;20222;-37
2022/05/03 08:26:11;;;;;;;5.30;4.23;;;14.10;87.00;;;;;;5038075;28;20208;-37
2022/05/03 08:28:39;;;;;;;5.67;4.37;;;14.20;87.10;;;;;;5034767;28;20371;-36
2022/05/03 08:31:07;;;;;;;6.30;3.75;;;14.20;87.20;;;;;;5036015;28;20196;-36
2022/05/03 08:33:35;;;;;;;4.93;3.80;;;14.20;87.20;;;;;;5047306;28;20303;-37
2022/05/03 08:36:03;;;;;;;7.97;3.92;;;14.20;87.10;;;;;;5038584;28;20244;-37
2022/05/03 08:44:03;;;;;;;5.70;3.57;;;14.30;87.00;;;;;;5028722;28;20315;-38
2022/05/03 08:46:31;;;;;;;4.03;3.50;;;14.40;87.00;;;;;;5027837;28;20841;-37
2022/05/03 08:49:03;;;;;;;9.60;4.03;;;14.40;87.10;;;;;;5043347;28;20286;-37
2022/05/03 08:51:32;;;;;;;4.07;3.27;;;14.50;86.90;;;;;;5039405;28;20204;-37
2022/05/03 08:54:03;;;;;;;3.83;3.20;;;14.50;86.90;;;;;;5042541;28;20219;-37
2022/05/03 08:56:31;;;;;;;4.80;3.50;;;14.60;87.70;;;;;;5042618;28;20242;-38
2022/05/03 08:58:58;;;;;;;5.53;3.50;;;14.60;86.90;;;;;;5049205;28;20208;-37
2022/05/03 09:01:25;;;;;;;7.80;3.80;;;14.70;87.00;;;;;;5036327;28;20209;-37
2022/05/03 09:03:56;;;;;;;7.13;3.83;;;14.70;87.10;;;;;;5037261;28;20335;-36
2022/05/03 09:06:47;;;;;;;4.05;3.65;;;14.80;87.00;;;;;;5040884;28;20212;-35
2022/05/03 09:09:19;;;;;;;6.40;4.18;;;14.90;86.70;;;;;;5029728;28;20213;-34
2022/05/03 09:11:57;;;;;;;5.70;3.85;;;15.00;86.80;;;;;;5033520;28;20201;-35
2022/05/03 09:14:42;;;;;;;4.32;3.80;;;15.00;86.40;;;;;;5035227;28;20216;-34
2022/05/03 09:17:09;;;;;;;4.63;3.60;;;15.10;86.80;;;;;;5033337;28;20219;-34
2022/05/03 09:19:39;;;;;;;8.60;3.42;;;15.10;86.80;;;;;;5029087;28;20671;-35
2022/05/03 09:25:04;;;;;;;6.55;4.32;;;15.20;87.10;;;;;;5029576;28;20770;-34
2022/05/03 09:27:32;;;;;;;4.97;3.45;;;15.30;86.80;;;;;;5028612;28;20262;-34
2022/05/03 09:30:06;;;;;;;8.85;4.53;;;15.30;87.30;;;;;;5043117;28;20209;-35
2022/05/03 09:32:54;;;;;;;5.43;4.32;;;15.40;87.20;;;;;;5029995;28;20304;-35
2022/05/03 09:35:33;;;;;;;6.53;4.53;;;15.40;87.30;;;;;;5026585;28;20220;-35
2022/05/03 09:38:04;;;;;;;5.00;4.05;;;15.50;87.50;;;;;;5026485;28;20751;-35
2022/05/03 09:40:45;;;;;;;5.43;4.35;;;15.50;87.60;;;;;;5026733;28;20211;-35
2022/05/03 09:43:14;;;;;;;4.22;3.83;;;15.50;87.70;;;;;;5028097;28;20209;-35
2022/05/03 09:45:42;;;;;;;5.63;3.88;;;15.60;87.70;;;;;;5046638;28;20224;-36
2022/05/03 09:48:11;;;;;;;5.75;3.70;;;15.70;88.10;;;;;;5043361;28;20740;-33
2022/05/03 09:50:43;;;;;;;4.20;3.70;;;15.70;88.10;;;;;;5045367;28;20223;-35
2022/05/03 09:53:22;;;;;;;4.82;3.60;;;15.80;88.20;;;;;;5027565;28;20287;-35
2022/05/03 09:55:50;;;;;;;3.97;3.00;;;15.90;88.10;;;;;;5040125;28;20292;-34
2022/05/03 09:58:19;;;;;;;5.05;3.47;;;15.90;88.30;;;;;;5048870;28;20589;-35
2022/05/03 10:00:48;;;;;;;8.45;4.32;;;16.00;88.50;;;;;;5056092;28;20227;-35
2022/05/03 10:03:15;;;;;;;4.63;4.05;;;16.10;88.40;;;;;;5037270;28;20204;-35
2022/05/03 10:05:46;;;;;;;5.20;4.70;;;16.10;88.40;;;;;;5039913;28;20281;-38
2022/05/03 10:08:21;;;;;;;5.00;4.13;;;16.10;88.00;;;;;;5027762;28;20638;-38
2022/05/03 10:10:58;;;;;;;4.63;3.47;;;16.20;88.20;;;;;;5034944;28;20284;-35
2022/05/03 10:13:26;;;;;;;4.32;3.60;;;16.30;88.20;;;;;;5033336;28;20326;-35
2022/05/03 10:21:40;;;;;;;5.32;4.40;;;16.40;88.10;;;;;;5036266;28;20297;-35
2022/05/03 10:24:10;;;;;;;5.03;3.38;;;16.40;87.80;;;;;;5042650;28;20232;-36
2022/05/03 10:26:56;;;;;;;4.95;4.40;;;16.40;88.20;;;;;;5028779;28;20299;-36
2022/05/03 10:29:25;;;;;;;6.13;4.38;;;16.50;87.80;;;;;;5037598;28;20201;-35
2022/05/03 10:31:56;;;;;;;6.05;4.70;;;16.50;87.90;;;;;;5038843;28;20266;-36
2022/05/03 10:34:45;;;;;;;4.45;4.05;;;16.60;87.80;;;;;;5034680;28;20212;-36
2022/05/03 10:37:19;;;;;;;5.28;3.95;;;16.60;88.20;;;;;;5032137;28;20255;-36
2022/05/03 10:40:12;;;;;;;5.68;4.72;;;16.70;88.40;;;;;;5026156;28;20209;-35
2022/05/03 10:42:41;;;;;;;4.50;3.97;;;16.80;87.40;;;;;;5027306;28;20303;-36
2022/05/03 10:45:13;;;;;;;5.60;4.03;;;16.90;87.90;;;;;;5028193;28;20225;-36
2022/05/03 10:47:52;;;;;;;11.70;5.20;;;16.90;87.90;;;;;;5027537;28;20201;-36
2022/05/03 10:50:21;;;;;;;5.38;4.05;;;16.90;87.90;;;;;;5024941;28;20217;-36
2022/05/03 10:53:00;;;;;;;5.30;3.60;;;16.90;87.90;;;;;;5032392;28;20208;-36
2022/05/03 10:55:31;;;;;;;4.68;3.28;;;16.90;88.40;;;;;;5028882;28;20232;-35
2022/05/03 10:58:18;;;;;;;5.53;3.70;;;17.00;89.20;;;;;;5041656;28;20357;-35
2022/05/03 11:01:04;;;;;;;5.65;3.70;;;17.10;88.10;;;;;;5032885;28;20315;-35
2022/05/03 11:03:40;;;;;;;6.38;4.10;;;17.10;88.50;;;;;;5035717;28;20243;-35
2022/05/03 11:06:19;;;;;;;4.65;3.72;;;17.10;87.50;;;;;;5030582;28;20312;-38
2022/05/03 11:09:04;;;;;;;4.30;3.83;;;17.10;88.10;;;;;;5031155;28;20573;-38
2022/05/03 11:11:39;;;;;;;4.53;3.60;;;17.10;88.10;;;;;;5029898;28;20291;-38
2022/05/03 11:14:24;;;;;;;3.85;3.05;;;17.10;88.30;;;;;;5033401;28;20208;-38
2022/05/03 11:17:09;;;;;;;7.38;3.72;;;17.20;88.20;;;;;;5048809;28;20307;-38
2022/05/03 11:19:58;;;;;;;4.53;3.53;;;17.30;88.20;;;;;;5036858;28;20205;-39
2022/05/03 11:22:35;;;;;;;5.03;3.05;;;17.40;86.80;;;;;;5041807;28;20676;-38
2022/05/03 11:25:13;;;;;;;5.68;3.60;;;17.40;87.90;;;;;;5030225;28;20744;-39
2022/05/03 11:27:43;;;;;;;3.53;2.97;;;17.40;88.40;;;;;;5041641;28;20200;-38
2022/05/03 11:30:16;;;;;;;3.65;3.10;;;17.50;88.20;;;;;;5030662;28;20588;-38
2022/05/03 11:32:43;;;;;;;5.20;3.47;;;17.50;88.50;;;;;;5029231;28;20620;-38
2022/05/03 11:35:12;;;;;;;5.07;3.30;;;17.60;88.50;;;;;;5043814;28;20306;-38
2022/05/03 11:38:11;;;;;;;5.88;3.70;;;17.60;88.80;;;;;;5044140;28;21123;-39
2022/05/03 11:40:58;;;;;;;6.90;3.83;;;17.70;87.50;;;;;;5049258;28;20214;-38
2022/05/03 11:43:25;;;;;;;7.38;3.67;;;17.70;88.20;;;;;;5049699;28;20672;-38
2022/05/03 11:45:53;;;;;;;5.70;3.58;;;17.80;88.20;;;;;;5049592;28;20259;-39
2022/05/03 11:48:20;;;;;;;4.50;3.60;;;17.80;87.70;;;;;;5042881;28;20192;-39
2022/05/03 11:56:27;;;;;;;2.55;2.35;;;17.90;87.50;;;;;;5043254;28;20296;-39
2022/05/03 11:58:55;;;;;;;3.65;3.20;;;18.00;88.60;;;;;;5038827;28;20201;-35
2022/05/03 12:01:23;;;;;;;5.55;4.00;;;18.00;88.10;;;;;;5029176;28;20646;-36
2022/05/03 12:03:53;;;;;;;4.78;3.90;;;18.10;87.30;;;;;;5028466;28;20283;-37
2022/05/03 12:06:23;;;;;;;3.22;2.92;;;18.10;87.40;;;;;;5041495;28;20216;-42
2022/05/03 12:08:52;;;;;;;4.22;3.83;;;18.20;87.70;;;;;;5029817;28;20338;-36
2022/05/03 12:11:21;;;;;;;5.57;4.80;;;18.20;87.80;;;;;;5032806;28;20197;-35
2022/05/03 12:13:49;;;;;;;4.68;3.58;;;18.30;87.70;;;;;;5028477;28;20212;-34
2022/05/03 12:16:27;;;;;;;4.35;3.75;;;18.30;88.00;;;;;;5042768;28;20208;-33
2022/05/03 12:18:57;;;;;;;4.05;3.15;;;18.40;88.40;;;;;;5048519;28;20220;-33
2022/05/03 12:21:30;;;;;;;5.20;3.72;;;18.50;88.90;;;;;;5050336;28;20287;-32
2022/05/03 12:24:01;;;;;;;3.42;2.60;;;18.50;88.50;;;;;;5042540;28;20279;-32
2022/05/03 12:26:38;;;;;;;5.13;3.70;;;18.50;89.00;;;;;;5033372;28;20762;-34
2022/05/03 12:29:06;;;;;;;3.65;2.97;;;18.60;88.90;;;;;;5042801;28;20204;-33
2022/05/03 12:31:37;;;;;;;4.28;3.88;;;18.70;89.40;;;;;;5047895;28;20235;-33
2022/05/03 12:34:28;;;;;;;5.18;4.68;;;18.80;88.10;;;;;;5027854;28;20209;-33
2022/05/03 12:37:03;;;;;;;4.70;4.20;;;18.80;87.40;;;;;;5030807;28;20679;-33
2022/05/03 12:39:37;;;;;;;5.72;4.20;;;18.90;88.00;;;;;;5038151;28;20722;-33
2022/05/03 12:42:12;;;;;;;4.45;3.67;;;19.00;88.50;;;;;;5025960;28;20703;-31
2022/05/03 12:44:48;;;;;;;4.03;3.50;;;19.00;88.90;;;;;;5026252;28;20283;-34
2022/05/03 12:47:16;;;;;;;4.30;3.63;;;19.10;88.80;;;;;;5028165;28;20243;-33
2022/05/03 12:49:47;;;;;;;5.95;3.75;;;19.10;89.00;;;;;;5024671;28;20245;-34
2022/05/03 12:52:15;;;;;;;7.15;4.47;;;19.10;88.60;;;;;;5028504;28;20201;-34
2022/05/03 12:54:44;;;;;;;4.80;4.30;;;19.20;87.90;;;;;;5026111;28;20299;-34
2022/05/03 13:00:01;;;;;;;4.85;4.30;;;19.40;88.70;;;;;;5024278;28;20791;-36
2022/05/03 13:02:36;;;;;;;4.32;3.45;;;19.40;87.70;;;;;;5028458;28;20266;-36
2022/05/03 13:05:06;;;;;;;4.90;3.78;;;19.50;88.20;;;;;;5032516;28;20212;-36
2022/05/03 13:07:34;;;;;;;5.68;3.50;;;19.60;88.10;;;;;;5044450;28;20189;-36
2022/05/03 13:10:01;;;;;;;6.35;4.38;;;19.60;88.70;;;;;;5047779;28;20220;-36
2022/05/03 13:12:32;;;;;;;4.28;3.83;;;19.80;87.40;;;;;;5047549;28;20196;-36
2022/05/03 13:15:04;;;;;;;4.40;3.70;;;19.80;88.50;;;;;;5038077;28;20292;-36
2022/05/03 13:17:31;;;;;;;4.65;4.15;;;19.90;88.70;;;;;;5042394;28;20239;-36
2022/05/03 13:20:01;;;;;;;7.25;4.45;;;20.00;88.80;;;;;;5039951;28;20204;-36
2022/05/03 13:22:31;;;;;;;8.02;4.60;;;20.00;88.20;;;;;;5047780;28;20207;-36
2022/05/03 13:25:00;;;;;;;6.80;4.50;;;20.10;87.80;;;;;;5045854;28;20227;-36
2022/05/03 13:27:28;;;;;;;5.60;4.57;;;20.00;88.20;;;;;;5047924;28;20299;-35
2022/05/03 13:29:55;;;;;;;5.00;3.53;;;20.00;88.30;;;;;;5032368;28;20263;-35
2022/05/03 13:32:28;;;;;;;4.35;3.42;;;20.00;87.80;;;;;;5042285;28;20231;-35
2022/05/03 13:34:56;;;;;;;3.72;3.30;;;20.10;88.60;;;;;;5044648;28;20291;-35
2022/05/03 13:40:29;;;;;;;4.28;3.88;;;20.10;88.60;;;;;;5038787;28;20208;-35
2022/05/03 13:43:01;;;;;;;6.00;3.75;;;20.10;88.60;;;;;;5033950;28;20239;-35
2022/05/03 13:45:30;;;;;;;5.43;4.15;;;20.20;88.30;;;;;;5045837;28;20619;-36
2022/05/03 13:48:17;;;;;;;4.95;4.13;;;20.20;88.20;;;;;;5027231;28;20208;-35
2022/05/03 13:50:45;;;;;;;5.10;4.40;;;20.20;88.40;;;;;;5025250;28;20365;-35
2022/05/03 13:53:13;;;;;;;4.10;3.70;;;20.10;87.50;;;;;;5030231;28;20671;-35